createdAt,value
2023-04-09T00:03:39.495Z,9.20
2023-04-09T00:08:41.731Z,9.10
2023-04-09T00:13:43.895Z,9.00
2023-04-09T00:18:46.399Z,9.10
2023-04-09T00:23:48.453Z,9.00
2023-04-09T00:28:50.772Z,9.10
2023-04-09T00:33:53.136Z,9.00
2023-04-09T00:38:55.633Z,9.00
2023-04-09T00:43:58.188Z,8.90
2023-04-09T00:49:00.621Z,8.90
2023-04-09T00:54:02.747Z,8.80
2023-04-09T00:59:05.502Z,8.80
2023-04-09T01:04:08.104Z,8.70
2023-04-09T01:09:24.817Z,8.70
2023-04-09T01:14:36.473Z,8.70
2023-04-09T01:20:04.049Z,8.60
2023-04-09T01:25:34.294Z,8.60
2023-04-09T01:30:36.451Z,8.50
2023-04-09T01:35:41.308Z,8.30
2023-04-09T01:40:44.044Z,8.10
2023-04-09T01:45:47.225Z,8.00
2023-04-09T01:50:50.701Z,8.00
2023-04-09T01:55:52.793Z,8.00
2023-04-09T02:01:01.240Z,8.00
2023-04-09T02:06:12.002Z,7.90
2023-04-09T02:11:16.252Z,7.80
2023-04-09T02:16:19.017Z,7.70
2023-04-09T02:21:22.021Z,7.60
2023-04-09T02:26:24.704Z,7.50
2023-04-09T02:31:26.881Z,7.40
2023-04-09T02:36:29.415Z,7.40
2023-04-09T02:41:31.736Z,7.40
2023-04-09T02:46:33.920Z,7.30
2023-04-09T02:51:36.485Z,7.30
2023-04-09T02:56:38.722Z,7.30
2023-04-09T03:01:41.090Z,7.10
2023-04-09T03:06:43.239Z,7.10
2023-04-09T03:11:45.436Z,7.10
2023-04-09T03:16:47.492Z,7.20
2023-04-09T03:21:50.978Z,7.10
2023-04-09T03:26:57.683Z,7.20
2023-04-09T03:32:00.658Z,7.20
2023-04-09T03:37:02.946Z,7.20
2023-04-09T03:42:07.162Z,7.10
2023-04-09T03:47:18.871Z,7.00
2023-04-09T03:52:21.192Z,7.00
2023-04-09T03:57:31.798Z,7.00
2023-04-09T04:02:34.479Z,7.10
2023-04-09T04:07:40.139Z,7.20
2023-04-09T04:12:47.320Z,7.30
2023-04-09T04:17:56.082Z,7.40
2023-04-09T04:23:12.422Z,7.50
2023-04-09T04:28:23.681Z,7.70
2023-04-09T04:33:25.941Z,7.70
2023-04-09T04:38:30.152Z,7.80
2023-04-09T04:43:35.453Z,7.50
2023-04-09T04:48:37.688Z,7.50
2023-04-09T04:53:39.918Z,7.50
2023-04-09T04:58:47.312Z,7.40
2023-04-09T05:03:51.779Z,7.40
2023-04-09T05:09:11.704Z,7.50
2023-04-09T05:14:22.498Z,7.70
2023-04-09T05:19:24.774Z,8.00
2023-04-09T05:24:33.398Z,8.10
2023-04-09T05:29:36.139Z,8.20
2023-04-09T05:34:41.706Z,8.20
2023-04-09T05:39:43.858Z,8.20
2023-04-09T05:44:46.120Z,8.10
2023-04-09T05:49:52.639Z,7.90
2023-04-09T05:54:54.755Z,7.80
2023-04-09T06:00:03.540Z,7.60
2023-04-09T06:05:18.607Z,7.60
2023-04-09T06:10:22.329Z,7.70
2023-04-09T06:15:25.060Z,7.80
2023-04-09T06:20:27.210Z,7.70
2023-04-09T06:25:29.413Z,7.70
2023-04-09T06:30:32.080Z,7.80
2023-04-09T06:35:34.264Z,8.00
2023-04-09T06:40:39.782Z,8.30
2023-04-09T06:45:41.941Z,8.60
2023-04-09T06:50:44.967Z,8.80
2023-04-09T06:55:47.079Z,9.10
2023-04-09T07:00:49.274Z,9.30
2023-04-09T07:05:52.040Z,9.50
2023-04-09T07:10:54.141Z,9.80
2023-04-09T07:15:56.233Z,10.50
2023-04-09T07:20:59.272Z,12.30
2023-04-09T07:26:07.712Z,13.50
2023-04-09T07:31:09.818Z,14.20
2023-04-09T07:36:11.960Z,14.00
2023-04-09T07:41:14.431Z,14.00
2023-04-09T07:46:21.259Z,13.80
2023-04-09T07:51:23.404Z,12.90
2023-04-09T07:56:26.014Z,12.20
2023-04-09T08:01:28.376Z,11.90
2023-04-09T08:06:31.159Z,11.90
2023-04-09T08:11:33.301Z,12.00
2023-04-09T08:16:35.547Z,12.50
2023-04-09T08:21:39.198Z,13.20
2023-04-09T08:26:42.562Z,13.80
2023-04-09T08:31:44.892Z,14.30
2023-04-09T08:36:47.673Z,15.00
2023-04-09T08:41:50.992Z,15.20
2023-04-09T08:46:54.093Z,15.50
2023-04-09T08:51:56.419Z,15.90
2023-04-09T08:56:58.887Z,15.90
2023-04-09T09:02:08.664Z,15.40
2023-04-09T09:07:11.216Z,15.60
2023-04-09T09:12:39.501Z,16.00
2023-04-09T09:17:55.870Z,15.80
2023-04-09T09:22:58.121Z,16.00
2023-04-09T09:28:11.391Z,16.60
2023-04-09T09:33:13.442Z,16.80
2023-04-09T09:38:16.367Z,17.10
2023-04-09T09:43:18.488Z,17.40
2023-04-09T09:48:20.583Z,17.60
2023-04-09T09:53:25.079Z,18.00
2023-04-09T09:58:40.951Z,18.20
2023-04-09T10:03:44.627Z,18.40
2023-04-09T10:08:51.250Z,18.30
2023-04-09T10:14:00.579Z,18.50
2023-04-09T10:19:03.323Z,18.40
2023-04-09T10:24:07.957Z,18.40
2023-04-09T10:29:15.187Z,18.70
2023-04-09T10:34:19.196Z,19.10
2023-04-09T10:39:21.560Z,19.30
2023-04-09T10:44:26.397Z,19.40
2023-04-09T10:49:39.990Z,19.70
2023-04-09T10:54:46.289Z,19.60
2023-04-09T10:59:54.011Z,19.40
2023-04-09T11:05:25.035Z,19.40
2023-04-09T11:10:27.146Z,19.40
2023-04-09T11:15:29.819Z,19.50
2023-04-09T11:20:34.413Z,19.50
2023-04-09T11:25:36.470Z,19.40
2023-04-09T11:30:38.662Z,19.50
2023-04-09T11:35:40.859Z,19.60
2023-04-09T11:40:48.743Z,19.50
2023-04-09T11:45:51.585Z,19.60
2023-04-09T11:50:53.912Z,19.70
2023-04-09T11:55:56.355Z,19.60
2023-04-09T12:00:59.272Z,19.60
2023-04-09T12:06:03.141Z,19.70
2023-04-09T12:11:10.686Z,19.80
2023-04-09T12:16:14.154Z,19.70
2023-04-09T12:21:19.125Z,19.70
2023-04-09T12:26:21.652Z,19.70
2023-04-09T12:31:23.760Z,19.60
2023-04-09T12:36:26.552Z,19.70
2023-04-09T12:41:28.679Z,20.00
2023-04-09T12:46:32.503Z,20.30
2023-04-09T12:51:34.853Z,20.30
2023-04-09T12:56:36.919Z,20.30
2023-04-09T13:01:41.380Z,20.20
2023-04-09T13:06:44.910Z,20.30
2023-04-09T13:11:46.984Z,20.50
2023-04-09T13:16:50.177Z,20.60
2023-04-09T13:21:52.444Z,20.60
2023-04-09T13:26:54.552Z,20.70
2023-04-09T13:31:57.963Z,20.70
2023-04-09T13:37:00.517Z,20.70
2023-04-09T13:42:09.917Z,20.70
2023-04-09T13:47:16.914Z,20.80
2023-04-09T13:52:19.266Z,20.80
2023-04-09T13:57:21.383Z,20.50
2023-04-09T14:02:23.943Z,20.30
2023-04-09T14:07:26.570Z,20.60
2023-04-09T14:12:28.667Z,20.60
2023-04-09T14:17:30.785Z,20.50
2023-04-09T14:22:33.016Z,20.60
2023-04-09T14:27:35.290Z,20.40
2023-04-09T14:32:37.834Z,20.50
2023-04-09T14:37:41.084Z,20.40
2023-04-09T14:42:45.578Z,20.10
2023-04-09T14:47:47.603Z,20.00
2023-04-09T14:52:49.806Z,19.70
2023-04-09T14:57:51.904Z,19.50
2023-04-09T15:02:54.378Z,19.30
2023-04-09T15:07:57.982Z,19.40
2023-04-09T15:13:00.204Z,19.40
2023-04-09T15:18:05.775Z,19.30
2023-04-09T15:23:08.671Z,19.30
2023-04-09T15:28:11.383Z,19.20
2023-04-09T15:33:13.742Z,19.20
2023-04-09T15:38:17.203Z,19.00
2023-04-09T15:43:19.330Z,18.90
2023-04-09T15:48:21.402Z,18.90
2023-04-09T15:53:26.699Z,19.00
2023-04-09T15:58:28.947Z,19.00
2023-04-09T16:03:35.413Z,18.70
2023-04-09T16:08:39.843Z,18.50
2023-04-09T16:13:42.537Z,18.30
2023-04-09T16:18:44.971Z,18.20
2023-04-09T16:23:47.675Z,18.00
2023-04-09T16:28:49.827Z,18.00
2023-04-09T16:33:51.896Z,17.80
2023-04-09T16:38:54.150Z,17.80
2023-04-09T16:43:56.408Z,18.00
2023-04-09T16:48:58.438Z,18.10
2023-04-09T16:54:00.964Z,18.40
2023-04-09T16:59:03.112Z,18.70
2023-04-09T17:04:05.325Z,19.00
2023-04-09T17:09:07.500Z,18.60
2023-04-09T17:14:09.609Z,18.00
2023-04-09T17:19:11.776Z,17.40
2023-04-09T17:24:13.892Z,17.20
2023-04-09T17:29:16.713Z,17.00
2023-04-09T17:34:19.287Z,16.80
2023-04-09T17:39:21.412Z,16.70
2023-04-09T17:44:25.322Z,16.60
2023-04-09T17:49:31.458Z,16.50
2023-04-09T17:54:38.069Z,16.40
2023-04-09T17:59:40.945Z,16.30
2023-04-09T18:04:43.356Z,16.20
2023-04-09T18:09:45.761Z,16.00
2023-04-09T18:14:49.499Z,15.70
2023-04-09T18:19:54.289Z,15.40
2023-04-09T18:24:56.607Z,15.30
2023-04-09T18:29:59.381Z,15.30
2023-04-09T18:35:01.762Z,15.20
2023-04-09T18:40:04.192Z,15.10
2023-04-09T18:45:06.783Z,15.10
2023-04-09T18:50:09.643Z,15.00
2023-04-09T18:55:12.138Z,14.90
2023-04-09T19:00:14.776Z,14.80
2023-04-09T19:05:17.436Z,14.70
2023-04-09T19:10:19.642Z,14.60
2023-04-09T19:15:29.424Z,14.70
2023-04-09T19:20:31.809Z,14.70
2023-04-09T19:25:34.212Z,14.50
2023-04-09T19:30:36.287Z,14.30
2023-04-09T19:35:40.823Z,14.20
2023-04-09T19:40:43.150Z,14.10
2023-04-09T19:45:45.394Z,14.10
2023-04-09T19:50:48.934Z,14.00
2023-04-09T19:55:51.638Z,14.00
2023-04-09T20:00:53.860Z,13.90
2023-04-09T20:05:55.981Z,13.90
2023-04-09T20:10:58.113Z,13.80
2023-04-09T20:16:00.669Z,13.80
2023-04-09T20:21:02.772Z,13.80
2023-04-09T20:26:05.079Z,13.70
2023-04-09T20:31:07.789Z,13.70
2023-04-09T20:36:17.664Z,13.60
2023-04-09T20:41:19.910Z,13.50
2023-04-09T20:46:22.110Z,13.50
2023-04-09T20:51:24.271Z,13.40
2023-04-09T20:56:26.615Z,13.30
2023-04-09T21:01:28.817Z,13.20
2023-04-09T21:06:31.204Z,13.10
2023-04-09T21:11:33.407Z,13.10
2023-04-09T21:16:35.850Z,13.00
2023-04-09T21:21:38.274Z,12.90
2023-04-09T21:26:50.927Z,12.90
2023-04-09T21:31:54.105Z,12.80
2023-04-09T21:36:56.214Z,12.80
2023-04-09T21:41:58.336Z,12.70
2023-04-09T21:47:01.758Z,12.70
2023-04-09T21:52:03.922Z,12.70
2023-04-09T21:57:06.653Z,12.60
2023-04-09T22:02:09.416Z,12.60
2023-04-09T22:07:12.005Z,12.50
2023-04-09T22:12:14.161Z,12.40
2023-04-09T22:17:17.240Z,12.30
2023-04-09T22:22:19.348Z,12.30
2023-04-09T22:27:21.827Z,12.40
2023-04-09T22:32:23.933Z,12.40
2023-04-09T22:37:26.105Z,12.30
2023-04-09T22:42:28.188Z,12.30
2023-04-09T22:47:30.502Z,12.30
2023-04-09T22:52:32.736Z,12.20
2023-04-09T22:57:36.088Z,12.20
2023-04-09T23:02:38.353Z,12.20
2023-04-09T23:07:42.721Z,12.10
2023-04-09T23:12:44.969Z,12.10
2023-04-09T23:17:47.391Z,12.10
2023-04-09T23:22:50.040Z,12.00
2023-04-09T23:27:52.209Z,12.00
2023-04-09T23:32:56.317Z,12.00
2023-04-09T23:37:59.619Z,11.90
2023-04-09T23:43:02.814Z,12.00
2023-04-09T23:48:07.473Z,11.90
2023-04-09T23:53:09.736Z,12.00
2023-04-09T23:58:13.011Z,12.00
